Time;durP1;ratioP1;P1;durP2;ratioP2;P2;SDS_P1;SDS_P2;PMS_P1;PMS_P2;Temp;Humidity;BMP_temperature;BMP_pressure;BME280_temperature;BME280_humidity;BME280_pressure;Samples;Min_cycle;Max_cycle;Signal;HPM_P1;HPM_P2
2023/08/31 00:00:16;;;;;;;18.63;12.07;;;;;;;-143.84;97.53;45077.63;5132308;27;20589;-57
2023/08/31 00:02:43;;;;;;;27.23;13.60;;;;;;;-143.84;97.66;45068.13;5131969;27;20485;-57
2023/08/31 00:05:11;;;;;;;27.63;12.60;;;;;;;-143.84;97.52;45056.69;5131911;27;20557;-57
2023/08/31 00:07:38;;;;;;;24.97;12.83;;;;;;;-143.84;97.96;45083.34;5132077;27;20456;-57
2023/08/31 00:10:09;;;;;;;27.43;13.63;;;;;;;-143.84;97.95;45060.50;5131873;27;20924;-57
2023/08/31 00:12:37;;;;;;;24.20;13.30;;;;;;;-143.84;98.15;45068.13;5131993;27;20446;-57
2023/08/31 00:15:05;;;;;;;22.73;12.80;;;;;;;-143.84;98.01;45066.22;5132106;27;20462;-57
2023/08/31 00:17:32;;;;;;;22.93;13.10;;;;;;;-143.84;98.09;45073.81;5131797;27;20441;-57
2023/08/31 00:20:00;;;;;;;33.10;13.80;;;;;;;-143.84;98.32;45050.97;5131879;27;20948;-57
2023/08/31 00:22:28;;;;;;;19.70;13.20;;;;;;;-143.84;98.61;45073.81;5131761;27;20580;-56
2023/08/31 00:24:55;;;;;;;20.73;13.47;;;;;;;-143.84;98.32;45071.91;5131592;27;20998;-57
2023/08/31 00:27:22;;;;;;;19.63;13.00;;;;;;;-143.84;98.63;45077.63;5131829;27;20834;-56
2023/08/31 00:29:50;;;;;;;20.20;12.57;;;;;;;-143.84;98.31;45054.78;5131856;27;20928;-56
2023/08/31 00:32:18;;;;;;;22.93;12.60;;;;;;;-143.84;98.69;45075.72;5131306;27;20438;-57
2023/08/31 00:34:45;;;;;;;27.80;11.77;;;;;;;-143.84;98.44;45073.81;5131506;27;20426;-57
2023/08/31 00:37:12;;;;;;;14.10;11.60;;;;;;;-143.84;97.96;45070.00;5131122;27;20446;-57
2023/08/31 00:39:41;;;;;;;23.07;13.27;;;;;;;-143.84;98.27;45041.44;5131724;27;20434;-57
2023/08/31 00:42:08;;;;;;;23.50;12.40;;;;;;;-143.84;98.03;45077.63;5131315;27;20829;-57
2023/08/31 00:44:36;;;;;;;21.30;11.80;;;;;;;-143.84;97.83;45070.00;5131413;27;20490;-56
2023/08/31 00:47:03;;;;;;;28.20;12.50;;;;;;;-143.84;97.58;45037.66;5131326;27;20495;-57
2023/08/31 00:49:30;;;;;;;15.87;12.83;;;;;;;-143.84;97.89;45068.13;5131235;27;20434;-57
2023/08/31 00:51:57;;;;;;;15.63;11.90;;;;;;;-143.84;97.69;45083.34;5131101;27;20438;-57
2023/08/31 00:54:25;;;;;;;22.90;12.63;;;;;;;-143.84;97.56;45041.44;5131549;27;20430;-56
2023/08/31 00:56:57;;;;;;;14.60;10.30;;;;;;;-143.84;97.37;45060.50;5131191;27;21476;-57
2023/08/31 00:59:26;;;;;;;20.37;11.50;;;;;;;-143.84;97.21;45052.88;5131194;27;20457;-57
2023/08/31 01:02:04;;;;;;;24.07;12.60;;;;;;;-143.84;96.64;45070.00;5130909;27;20979;-57
2023/08/31 01:04:41;;;;;;;15.97;11.27;;;;;;;-143.84;96.63;45064.31;5131122;27;20951;-57
2023/08/31 01:07:20;;;;;;;15.13;12.07;;;;;;;-143.84;96.70;45068.13;5131393;27;20441;-57
2023/08/31 01:09:59;;;;;;;33.00;13.07;;;;;;;-143.84;96.70;45070.00;5131125;27;20438;-57
2023/08/31 01:12:36;;;;;;;15.47;10.73;;;;;;;-143.84;97.06;45071.91;5130752;27;20438;-57
2023/08/31 01:15:07;;;;;;;30.37;13.20;;;;;;;-143.84;97.17;45073.81;5130847;27;20942;-57
2023/08/31 01:17:42;;;;;;;17.97;12.83;;;;;;;-143.84;97.29;45066.22;5130971;27;21152;-57
2023/08/31 01:20:12;;;;;;;18.90;12.50;;;;;;;-143.84;97.30;45071.91;5130919;27;20446;-57
2023/08/31 01:22:44;;;;;;;26.17;13.70;;;;;;;-143.84;97.72;45085.25;5130747;27;20513;-57
2023/08/31 01:25:13;;;;;;;20.80;13.03;;;;;;;-143.84;97.87;45071.91;5130783;27;20481;-57
2023/08/31 01:27:41;;;;;;;22.97;14.30;;;;;;;-143.84;98.21;45071.91;5130608;27;20927;-57
2023/08/31 01:30:09;;;;;;;18.90;12.90;;;;;;;-143.84;98.34;45058.59;5130727;27;20441;-57
2023/08/31 01:32:36;;;;;;;28.20;12.47;;;;;;;-143.84;98.42;45090.97;5130928;27;20912;-57
2023/08/31 01:35:06;;;;;;;16.10;12.20;;;;;;;-143.84;98.07;45058.59;5131316;27;20441;-57
2023/08/31 01:37:40;;;;;;;24.70;13.70;;;;;;;-143.84;98.33;45073.81;5130785;27;20450;-57
2023/08/31 01:40:14;;;;;;;37.33;14.20;;;;;;;-143.84;98.64;45056.69;5130605;27;20444;-57
2023/08/31 01:42:43;;;;;;;34.90;14.17;;;;;;;-143.84;98.86;45083.34;5130365;27;20503;-57
2023/08/31 01:45:15;;;;;;;23.43;14.67;;;;;;;-143.84;98.72;45081.44;5130462;27;20442;-57
2023/08/31 01:47:42;;;;;;;18.73;13.77;;;;;;;-143.84;98.92;45052.88;5129602;27;20491;-57
2023/08/31 01:50:10;;;;;;;23.23;14.07;;;;;;;-143.84;98.97;45068.13;5130406;27;20430;-57
2023/08/31 01:52:38;;;;;;;19.63;13.40;;;;;;;-143.84;98.86;45062.41;5130481;27;20476;-57
2023/08/31 01:55:06;;;;;;;17.73;14.43;;;;;;;-143.84;98.97;45045.25;5130026;27;20434;-57
2023/08/31 01:57:33;;;;;;;30.43;14.70;;;;;;;-143.84;99.37;45073.81;5130188;27;21086;-57
2023/08/31 02:00:01;;;;;;;24.17;14.50;;;;;;;-143.84;99.32;45068.13;5130323;27;20442;-57
2023/08/31 02:02:28;;;;;;;24.43;13.97;;;;;;;-143.84;99.33;45056.69;5129764;27;20522;-57
2023/08/31 02:04:55;;;;;;;25.33;13.60;;;;;;;-143.84;99.52;45062.41;5130570;27;20449;-57
2023/08/31 02:07:22;;;;;;;22.73;13.20;;;;;;;-143.84;99.43;45090.97;5130252;27;20445;-57
2023/08/31 02:09:50;;;;;;;32.87;12.83;;;;;;;-143.84;99.74;45079.53;5130479;27;20434;-57
2023/08/31 02:12:17;;;;;;;14.83;12.87;;;;;;;-143.84;99.43;45083.34;5130435;27;20966;-57
2023/08/31 02:14:44;;;;;;;18.77;13.37;;;;;;;-143.84;99.20;45062.41;5130311;27;20569;-57
2023/08/31 02:17:13;;;;;;;16.10;12.80;;;;;;;-143.84;98.80;45041.44;5129944;27;20437;-57
2023/08/31 02:19:40;;;;;;;16.47;12.20;;;;;;;-143.84;98.66;45064.31;5130152;27;20913;-57
2023/08/31 02:22:07;;;;;;;20.60;13.40;;;;;;;-143.84;98.65;45054.78;5130303;27;21007;-57
2023/08/31 02:24:34;;;;;;;18.00;12.10;;;;;;;-143.84;98.34;45066.22;5130018;27;20441;-57
2023/08/31 02:27:01;;;;;;;15.07;12.87;;;;;;;-143.84;98.61;45079.53;5130105;27;20442;-56
2023/08/31 02:29:28;;;;;;;13.97;12.33;;;;;;;-143.84;98.66;45077.63;5130199;27;20423;-56
2023/08/31 02:31:55;;;;;;;18.00;13.53;;;;;;;-143.84;98.69;45058.59;5129865;27;20434;-57
2023/08/31 02:34:24;;;;;;;15.37;13.17;;;;;;;-143.84;98.63;45077.63;5129819;27;20496;-57
2023/08/31 02:36:51;;;;;;;14.47;12.97;;;;;;;-143.84;98.88;45094.78;5130331;27;21080;-57
2023/08/31 02:39:18;;;;;;;19.93;14.00;;;;;;;-143.84;98.94;45077.63;5130171;27;20502;-57
2023/08/31 02:41:45;;;;;;;22.03;14.40;;;;;;;-143.84;98.78;45083.34;5130083;27;20545;-57
2023/08/31 02:44:12;;;;;;;14.30;12.60;;;;;;;-143.84;98.89;45085.25;5130322;27;20558;-57
2023/08/31 02:46:39;;;;;;;13.30;12.00;;;;;;;-143.84;98.93;45104.28;5130127;27;20437;-57
2023/08/31 02:49:06;;;;;;;15.53;12.43;;;;;;;-143.84;99.09;45087.16;5130240;27;20487;-57
2023/08/31 02:51:35;;;;;;;15.37;13.60;;;;;;;-143.84;99.00;45090.97;5130071;27;20434;-57
2023/08/31 02:54:03;;;;;;;15.50;13.90;;;;;;;-143.84;99.23;45068.13;5129635;27;20426;-57
2023/08/31 02:56:30;;;;;;;18.70;13.67;;;;;;;-143.84;99.39;45081.44;5130133;27;20489;-57
2023/08/31 02:58:57;;;;;;;19.60;14.87;;;;;;;-143.84;99.59;45079.53;5131065;27;20939;-57
2023/08/31 03:01:24;;;;;;;18.20;14.57;;;;;;;-143.84;99.80;45100.47;5133027;27;20434;-57
2023/08/31 03:03:51;;;;;;;17.27;13.30;;;;;;;-143.84;99.90;45083.34;5132868;27;20477;-57
2023/08/31 03:06:18;;;;;;;19.13;15.23;;;;;;;-143.84;99.94;45071.91;5133193;27;20456;-57
2023/08/31 03:08:47;;;;;;;15.30;13.80;;;;;;;-143.84;100.00;45071.91;5133147;27;20499;-57
2023/08/31 03:11:15;;;;;;;18.03;15.67;;;;;;;-143.84;100.00;45092.88;5132960;27;20442;-57
2023/08/31 03:13:43;;;;;;;20.30;15.83;;;;;;;-143.84;100.00;45062.41;5132988;27;20451;-57
2023/08/31 03:16:10;;;;;;;20.10;14.30;;;;;;;-143.84;100.00;45090.97;5132943;27;20434;-57
2023/08/31 03:18:37;;;;;;;22.33;14.80;;;;;;;-143.84;100.00;45079.53;5132899;27;20434;-57
2023/08/31 03:21:04;;;;;;;22.83;14.67;;;;;;;-143.84;100.00;45071.91;5132765;27;20506;-57
2023/08/31 03:23:31;;;;;;;18.47;15.17;;;;;;;-143.84;100.00;45077.63;5132766;27;20492;-57
2023/08/31 03:25:59;;;;;;;18.00;15.00;;;;;;;-143.84;100.00;45073.81;5132620;27;20473;-57
2023/08/31 03:28:27;;;;;;;17.97;15.40;;;;;;;-143.84;100.00;45075.72;5133084;27;20435;-57
2023/08/31 03:30:57;;;;;;;17.00;13.80;;;;;;;-143.84;100.00;45071.91;5132813;27;20525;-57
2023/08/31 03:33:24;;;;;;;16.30;14.60;;;;;;;-143.84;100.00;45087.16;5132979;27;20446;-57
2023/08/31 03:35:51;;;;;;;18.30;14.87;;;;;;;-143.84;100.00;45104.28;5132440;27;20441;-57
2023/08/31 03:38:19;;;;;;;16.70;14.93;;;;;;;-143.84;100.00;45096.66;5132601;27;20445;-57
2023/08/31 03:40:54;;;;;;;17.00;15.00;;;;;;;-143.84;100.00;45085.25;5132502;27;20954;-57
2023/08/31 03:43:22;;;;;;;19.13;14.53;;;;;;;-143.84;100.00;45056.69;5132515;27;20485;-57
2023/08/31 03:45:50;;;;;;;15.13;13.63;;;;;;;-143.84;100.00;45087.16;5132546;27;20977;-55
2023/08/31 03:48:17;;;;;;;21.47;14.10;;;;;;;-143.84;100.00;45037.66;5132794;27;20441;-56
2023/08/31 03:50:44;;;;;;;21.80;14.13;;;;;;;-143.84;100.00;45070.00;5132442;27;20430;-56
2023/08/31 03:53:11;;;;;;;15.27;13.87;;;;;;;-143.84;100.00;45077.63;5132395;27;20441;-56
2023/08/31 03:55:38;;;;;;;16.90;13.47;;;;;;;-143.84;100.00;45079.53;5132676;27;21151;-56
2023/08/31 03:58:05;;;;;;;21.23;13.40;;;;;;;-143.84;100.00;45100.47;5132377;27;20438;-56
2023/08/31 04:00:34;;;;;;;14.17;12.40;;;;;;;-143.84;100.00;45064.31;5132416;27;20494;-56
2023/08/31 04:03:01;;;;;;;13.30;11.97;;;;;;;-143.84;100.00;45071.91;5132735;27;20466;-56
2023/08/31 04:05:28;;;;;;;14.23;11.57;;;;;;;-143.84;100.00;45117.63;5132351;27;21237;-56
2023/08/31 04:07:55;;;;;;;13.07;11.77;;;;;;;-143.84;100.00;45104.28;5132267;27;20499;-56
2023/08/31 04:10:23;;;;;;;16.30;13.13;;;;;;;-143.84;100.00;45092.88;5131676;27;20457;-56
2023/08/31 04:12:50;;;;;;;15.70;12.37;;;;;;;-143.84;100.00;45064.31;5131163;27;20536;-56
2023/08/31 04:15:17;;;;;;;12.97;11.87;;;;;;;-143.84;100.00;45094.78;5132090;27;20431;-56
2023/08/31 04:17:46;;;;;;;24.73;13.17;;;;;;;-143.84;100.00;45075.72;5132042;27;20475;-56
2023/08/31 04:20:14;;;;;;;13.27;12.07;;;;;;;-143.84;100.00;45083.34;5132069;27;20487;-56
2023/08/31 04:22:41;;;;;;;13.80;12.40;;;;;;;-143.84;100.00;45077.63;5132205;27;20485;-56
2023/08/31 04:25:09;;;;;;;11.50;10.40;;;;;;;-143.84;100.00;45087.16;5131646;27;20481;-56
2023/08/31 04:27:39;;;;;;;15.73;10.63;;;;;;;-143.84;100.00;45098.56;5132038;27;20438;-56
2023/08/31 04:30:07;;;;;;;13.37;11.80;;;;;;;-143.84;99.88;45056.69;5132008;27;20457;-56
2023/08/31 04:32:35;;;;;;;15.87;11.13;;;;;;;-143.84;100.00;45043.34;5132327;27;20545;-56
2023/08/31 04:35:06;;;;;;;14.53;12.23;;;;;;;-143.84;100.00;45087.16;5132108;27;21088;-56
2023/08/31 04:37:34;;;;;;;22.80;16.20;;;;;;;-143.84;100.00;45094.78;5131767;27;20430;-56
2023/08/31 04:40:03;;;;;;;17.00;14.97;;;;;;;-143.84;100.00;45073.81;5131624;27;20442;-56
2023/08/31 04:42:30;;;;;;;23.43;15.90;;;;;;;-143.84;100.00;45090.97;5131795;27;20442;-56
2023/08/31 04:44:58;;;;;;;26.07;14.13;;;;;;;-143.84;99.94;45075.72;5131660;27;20437;-56
2023/08/31 04:47:25;;;;;;;19.63;14.53;;;;;;;-143.84;99.97;45085.25;5131816;27;20862;-56
2023/08/31 04:49:52;;;;;;;18.13;12.97;;;;;;;-143.84;99.92;45096.66;5131838;27;20426;-56
2023/08/31 04:52:21;;;;;;;15.37;13.73;;;;;;;-143.84;99.21;45092.88;5131554;27;20438;-56
2023/08/31 04:54:48;;;;;;;20.13;13.37;;;;;;;-143.84;99.00;45077.63;5131267;27;20437;-55
2023/08/31 04:57:15;;;;;;;16.30;13.80;;;;;;;-143.84;98.78;45075.72;5131261;27;20985;-56
2023/08/31 04:59:42;;;;;;;23.83;15.47;;;;;;;-143.84;98.38;45094.78;5131167;27;20791;-55
2023/08/31 05:02:09;;;;;;;25.20;15.30;;;;;;;-143.84;98.14;45068.13;5130532;27;20430;-58
2023/08/31 05:04:37;;;;;;;30.73;18.03;;;;;;;-143.84;97.72;45092.88;5129912;27;20469;-58
2023/08/31 05:07:04;;;;;;;29.03;19.77;;;;;;;-143.84;96.64;45052.88;5130157;27;21216;-58
2023/08/31 05:09:34;;;;;;;32.13;18.77;;;;;;;-143.84;96.61;45070.00;5129949;27;20520;-57
2023/08/31 05:12:02;;;;;;;40.77;20.67;;;;;;;-143.84;96.01;45052.88;5130125;27;20936;-58
2023/08/31 05:14:30;;;;;;;35.83;21.50;;;;;;;-143.84;95.67;45035.75;5129819;27;20438;-58
2023/08/31 05:16:57;;;;;;;24.60;19.80;;;;;;;-143.84;95.02;45075.72;5129629;27;20448;-58
2023/08/31 05:19:24;;;;;;;23.80;16.80;;;;;;;-143.84;94.93;45052.88;5129871;27;21044;-58
2023/08/31 05:21:52;;;;;;;26.07;17.50;;;;;;;-143.84;94.94;45033.84;5129014;27;20442;-58
2023/08/31 05:24:19;;;;;;;32.97;17.93;;;;;;;-143.84;95.11;45081.44;5129555;27;20513;-58
2023/08/31 05:26:47;;;;;;;28.30;19.50;;;;;;;-143.84;94.65;45062.41;5129606;27;20478;-58
2023/08/31 05:29:14;;;;;;;24.67;18.90;;;;;;;-143.84;94.33;45083.34;5129687;27;20438;-58
2023/08/31 05:31:41;;;;;;;25.47;19.43;;;;;;;-143.84;94.54;45087.16;5129749;27;20430;-58
2023/08/31 05:34:11;;;;;;;25.00;19.97;;;;;;;-143.84;93.99;45079.53;5129598;27;20449;-58
2023/08/31 05:36:38;;;;;;;29.77;18.33;;;;;;;-143.84;94.04;45062.41;5129640;27;20985;-58
2023/08/31 05:39:05;;;;;;;31.43;18.40;;;;;;;-143.84;93.90;45066.22;5129324;27;20429;-58
2023/08/31 05:41:32;;;;;;;32.07;18.87;;;;;;;-143.84;92.97;45064.31;5129871;27;20498;-58
2023/08/31 05:44:01;;;;;;;28.80;17.40;;;;;;;-143.84;92.24;45070.00;5129538;27;20590;-58
2023/08/31 05:46:28;;;;;;;21.83;16.80;;;;;;;-143.84;91.32;45077.63;5129429;27;20494;-58
2023/08/31 05:48:55;;;;;;;22.70;16.87;;;;;;;-143.84;91.86;45064.31;5129339;27;20446;-58
2023/08/31 05:51:22;;;;;;;23.70;16.50;;;;;;;-143.84;91.22;45052.88;5129367;27;20928;-58
2023/08/31 05:53:49;;;;;;;26.23;15.90;;;;;;;-143.84;90.15;45041.44;5129306;27;20479;-58
2023/08/31 05:56:16;;;;;;;37.63;16.43;;;;;;;-143.84;89.87;45047.16;5129366;27;20430;-57
2023/08/31 05:58:43;;;;;;;20.60;13.20;;;;;;;-143.84;89.27;45045.25;5129552;27;20438;-57
2023/08/31 06:01:12;;;;;;;19.63;14.80;;;;;;;-143.84;87.71;45062.41;5129250;27;20522;-57
2023/08/31 06:03:39;;;;;;;26.20;14.43;;;;;;;-143.84;87.25;45020.50;5129434;27;20485;-57
2023/08/31 06:06:06;;;;;;;25.70;15.40;;;;;;;-143.84;86.71;45037.66;5129117;27;20434;-57
2023/08/31 06:08:33;;;;;;;25.13;13.83;;;;;;;-143.84;86.08;45068.13;5129050;27;20444;-57
2023/08/31 06:11:01;;;;;;;30.53;12.00;;;;;;;-143.84;85.11;45030.03;5129397;27;20435;-57
2023/08/31 06:13:28;;;;;;;28.17;14.30;;;;;;;-143.84;83.92;45014.78;5129269;27;20438;-57
2023/08/31 06:15:57;;;;;;;22.20;12.93;;;;;;;-143.84;83.32;45037.66;5128995;27;20524;-58
2023/08/31 06:18:26;;;;;;;23.70;13.23;;;;;;;-143.84;82.11;45010.97;5129712;27;21394;-58
2023/08/31 06:20:53;;;;;;;16.60;12.33;;;;;;;-143.84;80.12;45016.69;5129122;27;20487;-57
2023/08/31 06:23:21;;;;;;;24.57;12.40;;;;;;;-143.84;79.61;45005.28;5128820;27;20478;-57
2023/08/31 06:25:48;;;;;;;22.73;11.37;;;;;;;-143.84;79.02;44995.75;5129030;27;20473;-57
2023/08/31 06:28:15;;;;;;;19.70;12.20;;;;;;;-143.84;78.28;45014.78;5129098;27;20503;-57
2023/08/31 06:30:46;;;;;;;26.40;11.60;;;;;;;-143.84;78.20;45020.50;5128976;27;20502;-62
2023/08/31 06:33:13;;;;;;;27.80;20.70;;;;;;;-143.84;76.63;45028.13;5129535;27;20786;-59
2023/08/31 06:35:42;;;;;;;23.63;15.50;;;;;;;-143.84;75.89;44995.75;5132891;27;20433;-58
2023/08/31 06:38:09;;;;;;;15.70;12.47;;;;;;;-143.84;76.29;45005.28;5133182;27;20498;-58
2023/08/31 06:40:36;;;;;;;17.10;11.57;;;;;;;-143.84;76.24;45003.38;5132866;27;20446;-58
2023/08/31 06:43:03;;;;;;;15.10;10.80;;;;;;;-143.84;74.85;44991.94;5132673;27;20855;-58
2023/08/31 06:45:30;;;;;;;21.93;11.00;;;;;;;-143.84;72.60;44974.81;5132600;27;20430;-58
2023/08/31 06:47:57;;;;;;;16.90;11.10;;;;;;;-143.84;70.90;45012.88;5132669;27;20445;-58
2023/08/31 06:50:24;;;;;;;32.03;10.70;;;;;;;-143.84;69.59;44986.22;5132806;27;20450;-57
2023/08/31 06:52:53;;;;;;;13.40;10.23;;;;;;;-143.84;69.21;44990.03;5132468;27;20430;-58
2023/08/31 06:55:20;;;;;;;13.03;10.70;;;;;;;-143.84;67.76;44976.72;5132702;27;20434;-58
2023/08/31 06:57:47;;;;;;;19.37;10.37;;;;;;;-143.84;66.84;44974.81;5132702;27;20430;-58
2023/08/31 07:00:15;;;;;;;12.10;10.07;;;;;;;-143.84;65.73;44934.81;5132305;27;20459;-58
2023/08/31 07:02:43;;;;;;;16.17;10.37;;;;;;;-143.84;64.94;44997.66;5132416;27;20959;-58
2023/08/31 07:05:12;;;;;;;18.10;9.10;;;;;;;-143.84;63.94;44978.63;5132222;27;20564;-58
2023/08/31 07:07:39;;;;;;;12.03;10.63;;;;;;;-143.84;63.59;44974.81;5132459;27;20434;-58
2023/08/31 07:10:08;;;;;;;22.63;9.70;;;;;;;-143.84;62.80;44990.03;5132481;27;20426;-58
2023/08/31 07:12:36;;;;;;;14.13;9.43;;;;;;;-143.84;63.70;44959.56;5132136;27;20442;-58
2023/08/31 07:15:03;;;;;;;11.90;8.80;;;;;;;-143.84;62.48;44967.19;5131930;27;20438;-58
2023/08/31 07:17:30;;;;;;;11.03;9.67;;;;;;;-143.84;60.89;44971.00;5132150;27;20937;-58
2023/08/31 07:19:57;;;;;;;12.77;9.83;;;;;;;-143.84;59.85;44946.25;5132115;27;20452;-58
2023/08/31 07:22:25;;;;;;;18.13;10.13;;;;;;;-143.84;59.05;44974.81;5132117;27;20430;-58
2023/08/31 07:24:52;;;;;;;17.40;10.00;;;;;;;-143.84;58.69;44950.06;5132077;27;20477;-58
2023/08/31 07:27:20;;;;;;;18.10;10.40;;;;;;;-143.84;57.89;44946.25;5131760;27;20441;-58
2023/08/31 07:29:47;;;;;;;11.37;9.20;;;;;;;-143.84;57.11;44934.81;5132196;27;20438;-58
2023/08/31 07:32:14;;;;;;;15.20;9.90;;;;;;;-143.84;56.39;44908.16;5132210;27;20932;-58
2023/08/31 07:34:41;;;;;;;10.73;9.63;;;;;;;-143.84;55.73;44948.16;5131944;27;21059;-58
2023/08/31 07:37:09;;;;;;;14.80;9.73;;;;;;;-143.84;55.00;44961.47;5132138;27;20491;-58
2023/08/31 07:39:36;;;;;;;18.33;10.33;;;;;;;-143.84;54.43;44940.53;5131036;27;20502;-58
2023/08/31 07:42:03;;;;;;;14.93;9.53;;;;;;;-143.84;53.29;44942.44;5130731;27;20556;-58
2023/08/31 07:44:32;;;;;;;15.17;10.13;;;;;;;-143.84;52.28;44925.31;5131175;27;20497;-58
2023/08/31 07:46:59;;;;;;;25.47;10.30;;;;;;;-143.84;52.23;44904.34;5130237;27;20535;-58
2023/08/31 07:49:26;;;;;;;15.67;9.27;;;;;;;-143.84;51.61;44929.09;5130846;27;20816;-58
2023/08/31 07:51:53;;;;;;;15.93;9.10;;;;;;;-143.84;50.94;44925.31;5130877;27;20430;-58
2023/08/31 07:54:21;;;;;;;17.73;8.87;;;;;;;-143.84;51.21;44911.97;5131282;27;20457;-58
2023/08/31 07:56:48;;;;;;;30.40;9.80;;;;;;;-143.84;50.93;44908.16;5131244;27;20483;-58
2023/08/31 07:59:15;;;;;;;13.80;9.00;;;;;;;-143.84;50.36;44917.69;5131671;27;20503;-58
2023/08/31 08:01:44;;;;;;;11.60;9.00;;;;;;;-143.84;50.11;44902.44;5131240;27;20491;-58
2023/08/31 08:04:12;;;;;;;18.73;9.80;;;;;;;-143.84;49.59;44908.16;5131260;27;20489;-58
2023/08/31 08:06:39;;;;;;;18.00;9.27;;;;;;;-143.84;50.25;44910.06;5131128;27;20437;-58
2023/08/31 08:09:06;;;;;;;18.00;9.83;;;;;;;-143.84;50.09;44917.69;5131205;27;20865;-58
2023/08/31 08:11:35;;;;;;;18.07;9.37;;;;;;;-143.84;49.97;44921.50;5131084;27;20438;-58
2023/08/31 08:14:03;;;;;;;23.30;9.90;;;;;;;-143.84;50.02;44929.09;5131353;27;20451;-58
2023/08/31 08:16:30;;;;;;;79.13;66.33;;;;;;;-143.84;50.62;44944.34;5131065;27;20995;-58
2023/08/31 08:18:59;;;;;;;34.23;28.57;;;;;;;-143.84;50.39;44938.63;5130919;27;20438;-58
2023/08/31 08:21:26;;;;;;;56.50;42.87;;;;;;;-143.84;48.29;44950.06;5131111;27;20496;-58
2023/08/31 08:23:53;;;;;;;16.70;10.40;;;;;;;-143.84;49.00;44931.00;5130323;27;20492;-58
2023/08/31 08:26:21;;;;;;;15.73;9.73;;;;;;;-143.84;48.94;44934.81;5130623;27;20906;-58
2023/08/31 08:28:48;;;;;;;13.80;9.70;;;;;;;-143.84;47.81;44906.25;5131131;27;20434;-58
2023/08/31 08:31:15;;;;;;;25.57;9.20;;;;;;;-143.84;50.31;44911.97;5130889;27;20958;-58
2023/08/31 08:33:42;;;;;;;26.87;9.70;;;;;;;-143.84;49.45;44936.72;5130749;27;20774;-58
2023/08/31 08:36:10;;;;;;;9.20;8.30;;;;;;;-143.84;48.65;44925.31;5129306;27;20438;-58
2023/08/31 08:38:37;;;;;;;15.90;8.77;;;;;;;-143.84;48.04;44927.19;5126945;27;20468;-58
2023/08/31 08:41:08;;;;;;;15.50;8.63;;;;;;;-143.84;48.49;44927.19;5130293;27;20434;-58
2023/08/31 08:43:36;;;;;;;21.10;10.00;;;;;;;-143.84;49.22;44917.69;5130346;27;20430;-58
2023/08/31 08:46:07;;;;;;;17.93;8.50;;;;;;;-143.84;48.52;44940.53;5130250;27;20521;-58
2023/08/31 08:48:35;;;;;;;25.10;9.30;;;;;;;-143.84;48.09;44917.69;5119740;27;20447;-58
2023/08/31 08:51:05;;;;;;;13.70;8.33;;;;;;;-143.84;46.74;44929.09;5109860;28;20514;-58
2023/08/31 08:53:33;;;;;;;11.90;7.70;;;;;;;-143.84;46.55;44919.59;5109599;28;20439;-58
2023/08/31 08:56:00;;;;;;;12.63;6.80;;;;;;;-143.84;44.85;44887.22;5109377;28;20447;-58
2023/08/31 08:58:27;;;;;;;13.70;7.20;;;;;;;-143.84;44.94;44927.19;5109804;28;20503;-58
2023/08/31 09:00:58;;;;;;;8.10;7.30;;;;;;;-143.84;43.62;44950.06;5109700;28;20555;-58
2023/08/31 09:03:25;;;;;;;18.47;10.07;;;;;;;-143.84;47.88;44942.44;5109526;28;20431;-58
2023/08/31 09:05:53;;;;;;;17.10;9.37;;;;;;;-143.84;49.14;44971.00;5109549;28;20486;-58
2023/08/31 09:08:27;;;;;;;25.63;9.90;;;;;;;-143.84;50.87;44931.00;5109407;28;20435;-58
2023/08/31 09:10:58;;;;;;;13.60;9.13;;;;;;;-143.84;51.77;44959.56;5109270;28;20431;-58
2023/08/31 09:13:28;;;;;;;20.90;10.07;;;;;;;-143.84;53.41;44942.44;5109588;28;20546;-58
2023/08/31 09:15:56;;;;;;;27.33;10.57;;;;;;;-143.84;55.13;44942.44;5109423;28;20975;-58
2023/08/31 09:18:25;;;;;;;12.60;9.13;;;;;;;-143.84;53.24;44929.09;5108407;27;20508;-55
2023/08/31 09:20:53;;;;;;;18.33;9.57;;;;;;;-143.84;53.07;44902.44;5123792;27;20450;-56
2023/08/31 09:23:20;;;;;;;25.37;11.00;;;;;;;-143.84;50.64;44929.09;5109796;28;20488;-55
2023/08/31 09:25:48;;;;;;;22.43;10.47;;;;;;;-143.84;50.25;44951.97;5108952;27;20547;-55
2023/08/31 09:28:17;;;;;;;18.47;10.00;;;;;;;-143.84;50.84;44936.72;5109556;28;20435;-55
2023/08/31 09:30:47;;;;;;;18.23;9.07;;;;;;;-143.84;50.91;44942.44;5110159;28;20499;-55
2023/08/31 09:33:16;;;;;;;13.07;8.60;;;;;;;-143.84;50.16;44898.66;5109979;28;20869;-56
2023/08/31 09:35:49;;;;;;;21.47;10.57;;;;;;;-143.84;52.92;44911.97;5109847;28;20447;-55
2023/08/31 09:38:16;;;;;;;14.00;10.03;;;;;;;-143.84;53.93;44931.00;5110038;28;20546;-56
2023/08/31 09:40:43;;;;;;;22.47;10.70;;;;;;;-143.84;54.40;44948.16;5109278;28;20496;-55
2023/08/31 09:43:10;;;;;;;13.40;9.43;;;;;;;-143.84;55.62;44969.09;5114688;27;20453;-55
2023/08/31 09:45:40;;;;;;;15.00;10.07;;;;;;;-143.84;53.47;44923.41;5130234;27;20543;-56
2023/08/31 09:48:07;;;;;;;11.10;9.20;;;;;;;-143.84;53.99;44923.41;5130113;27;20430;-55
2023/08/31 09:50:35;;;;;;;12.30;10.50;;;;;;;-143.84;49.96;44919.59;5129976;27;21142;-56
2023/08/31 09:53:05;;;;;;;17.60;9.03;;;;;;;-143.84;47.83;44944.34;5129969;28;20541;-56
2023/08/31 09:55:33;;;;;;;8.77;6.50;;;;;;;-143.84;45.64;44931.00;5109629;28;20510;-56
2023/08/31 09:58:01;;;;;;;18.97;10.60;;;;;;;-143.84;49.14;44919.59;5109587;28;20442;-56
2023/08/31 10:00:30;;;;;;;15.87;10.10;;;;;;;-143.84;49.89;44917.69;5109232;28;20492;-56
2023/08/31 10:03:02;;;;;;;14.30;8.40;;;;;;;-143.84;47.40;44891.03;5109732;28;20431;-56
2023/08/31 10:05:29;;;;;;;15.00;9.30;;;;;;;-143.84;46.50;44908.16;5109280;28;20474;-56
2023/08/31 10:07:58;;;;;;;20.73;10.20;;;;;;;-143.84;47.90;44896.75;5109351;28;20784;-56
2023/08/31 10:10:25;;;;;;;15.23;9.53;;;;;;;-143.84;48.55;44891.03;5113371;28;20932;-56
2023/08/31 10:12:54;;;;;;;10.10;9.00;;;;;;;-143.84;50.20;44898.66;5113623;28;20434;-56
2023/08/31 10:15:21;;;;;;;18.67;9.83;;;;;;;-143.84;52.18;44906.25;5113703;28;20443;-56
2023/08/31 10:17:48;;;;;;;8.93;6.53;;;;;;;-143.84;48.65;44873.88;5113755;28;20454;-56
2023/08/31 10:20:18;;;;;;;6.87;5.70;;;;;;;-143.84;41.51;44852.94;5113303;28;20427;-56
2023/08/31 10:22:46;;;;;;;26.87;8.80;;;;;;;-143.84;43.25;44877.69;5113277;28;20933;-56
2023/08/31 10:25:13;;;;;;;14.40;8.90;;;;;;;-143.84;43.32;44854.84;5112804;28;20490;-56
2023/08/31 10:27:41;;;;;;;8.57;5.73;;;;;;;-143.84;38.66;44889.13;5113294;28;20435;-56
2023/08/31 10:30:26;;;;;;;5.70;5.20;;;;;;;-143.84;39.50;44879.59;5113199;28;20480;-57
2023/08/31 10:33:23;;;;;;;6.30;5.70;;;;;;;-143.84;36.78;44849.13;5124946;27;20449;-56
2023/08/31 10:35:52;;;;;;;11.67;9.63;;;;;;;-143.84;35.13;44881.50;5127763;27;20485;-56
2023/08/31 10:38:26;;;;;;;35.13;28.70;;;;;;;-143.84;35.90;44858.66;5133713;27;20445;-56
2023/08/31 10:41:19;;;;;;;8.47;5.57;;;;;;;-143.84;33.80;44854.84;5132804;27;20430;-55
2023/08/31 10:43:48;;;;;;;8.00;5.17;;;;;;;-143.84;34.65;44854.84;5133467;27;20537;-55
2023/08/31 10:46:25;;;;;;;6.50;5.23;;;;;;;-143.84;33.51;44856.75;5133173;27;20900;-56
2023/08/31 10:48:53;;;;;;;21.80;5.40;;;;;;;-143.84;34.88;44847.22;5133111;27;20437;-56
2023/08/31 10:51:25;;;;;;;10.77;5.20;;;;;;;-143.84;34.36;44868.19;5133043;27;20453;-57
2023/08/31 10:53:52;;;;;;;9.73;5.40;;;;;;;-143.84;34.00;44854.84;5133232;27;20490;-56
2023/08/31 10:56:20;;;;;;;8.27;5.50;;;;;;;-143.84;34.36;44866.28;5132536;27;20449;-58
2023/08/31 10:59:05;;;;;;;7.20;4.33;;;;;;;-143.84;34.41;44856.75;5132773;27;20453;-59
2023/08/31 11:01:57;;;;;;;6.23;5.60;;;;;;;-143.84;33.52;44849.13;5125132;27;20446;-58
2023/08/31 11:04:27;;;;;;;8.23;5.47;;;;;;;-143.84;32.75;44889.13;5131798;27;20521;-58
2023/08/31 11:07:18;;;;;;;51.60;40.87;;;;;;;-143.84;34.76;44862.47;5132219;27;20442;-58